createdAt,value
2019-03-03T00:00:04.141Z,72.02
2019-03-03T00:10:03.382Z,72.74
2019-03-03T00:20:03.845Z,72.95
2019-03-03T00:30:03.691Z,74.18
2019-03-03T00:40:02.785Z,74.62
2019-03-03T00:50:02.709Z,75.17
2019-03-03T01:00:03.680Z,75.04
2019-03-03T01:10:03.002Z,74.74
2019-03-03T01:20:03.474Z,74.92
2019-03-03T01:30:03.452Z,74.71
2019-03-03T01:40:03.235Z,74.51
2019-03-03T01:50:03.118Z,74.21
2019-03-03T02:00:04.153Z,73.97
2019-03-03T02:10:02.630Z,73.61
2019-03-03T02:20:02.920Z,74.14
2019-03-03T02:30:03.711Z,74.19
2019-03-03T02:40:02.852Z,74.14
2019-03-03T02:50:02.851Z,74.03
2019-03-03T03:00:04.048Z,73.98
2019-03-03T03:10:03.442Z,74.55
2019-03-03T03:20:03.328Z,74.20
2019-03-03T03:30:03.498Z,74.38
2019-03-03T03:40:03.858Z,74.47
2019-03-03T03:50:03.257Z,74.26
2019-03-03T04:00:03.319Z,74.16
2019-03-03T04:10:03.073Z,74.29
2019-03-03T04:20:02.988Z,74.26
2019-03-03T04:30:04.025Z,74.64
2019-03-03T04:40:03.093Z,74.37
2019-03-03T04:50:02.527Z,74.49
2019-03-03T05:00:04.316Z,74.54
2019-03-03T05:10:02.864Z,74.97
2019-03-03T05:20:03.219Z,74.95
2019-03-03T05:30:03.745Z,74.78
2019-03-03T05:40:02.589Z,73.05
2019-03-03T05:50:02.830Z,71.37
2019-03-03T06:00:03.706Z,71.13
2019-03-03T06:10:02.623Z,69.88
2019-03-03T06:20:02.732Z,69.27
2019-03-03T06:30:06.084Z,70.39
2019-03-03T06:40:03.479Z,67.88
2019-03-03T06:50:02.376Z,66.65
2019-03-03T07:00:03.760Z,66.29
2019-03-03T07:10:02.622Z,67.22
2019-03-03T07:20:02.890Z,66.61
2019-03-03T07:30:03.826Z,64.00
2019-03-03T07:40:03.003Z,62.13
2019-03-03T07:50:03.015Z,59.89
2019-03-03T08:00:03.851Z,59.34
2019-03-03T08:10:02.816Z,58.61
2019-03-03T08:20:03.311Z,55.08
2019-03-03T08:30:03.025Z,54.45
2019-03-03T08:40:03.234Z,55.37
2019-03-03T08:50:03.159Z,52.96
2019-03-03T09:00:03.654Z,52.82
2019-03-03T09:10:02.593Z,53.01
2019-03-03T09:20:02.767Z,53.65
2019-03-03T09:30:03.852Z,52.26
2019-03-03T09:40:09.933Z,51.12
2019-03-03T09:50:02.834Z,47.59
2019-03-03T10:00:03.332Z,46.85
2019-03-03T10:10:03.140Z,44.49
2019-03-03T10:20:03.530Z,44.69
2019-03-03T10:30:03.621Z,42.21
2019-03-03T10:40:02.916Z,40.83
2019-03-03T10:50:02.922Z,40.02
2019-03-03T11:00:04.255Z,38.69
2019-03-03T11:10:03.206Z,39.25
2019-03-03T11:20:03.503Z,39.42
2019-03-03T11:30:03.353Z,39.46
2019-03-03T11:40:03.458Z,39.66
2019-03-03T11:50:02.505Z,41.55
2019-03-03T12:00:03.161Z,44.04
2019-03-03T12:10:03.220Z,44.06
2019-03-03T12:20:03.453Z,44.13
2019-03-03T12:30:03.890Z,44.02
2019-03-03T12:40:02.951Z,43.72
2019-03-03T12:50:03.047Z,44.06
2019-03-03T13:00:03.740Z,42.99
2019-03-03T13:10:02.677Z,41.77
2019-03-03T13:20:02.775Z,42.34
2019-03-03T13:30:03.956Z,44.09
2019-03-03T13:40:03.006Z,42.59
2019-03-03T13:50:03.020Z,43.14
2019-03-03T14:00:03.928Z,43.52
2019-03-03T14:10:03.351Z,40.43
2019-03-03T14:20:03.384Z,42.92
2019-03-03T14:30:03.386Z,41.90
2019-03-03T14:40:02.912Z,41.74
2019-03-03T14:50:02.785Z,42.20
2019-03-03T15:00:03.715Z,41.78
2019-03-03T15:10:02.831Z,42.47
2019-03-03T15:20:03.081Z,41.73
2019-03-03T15:30:04.183Z,42.32
2019-03-03T15:40:02.912Z,41.79
2019-03-03T15:50:02.727Z,41.34
2019-03-03T16:00:03.413Z,41.92
2019-03-03T16:10:02.914Z,42.26
2019-03-03T16:20:03.383Z,42.43
2019-03-03T16:30:03.455Z,41.48
2019-03-03T16:40:03.515Z,42.09
2019-03-03T16:50:02.776Z,42.30
2019-03-03T17:00:03.439Z,42.26
2019-03-03T17:10:02.751Z,42.82
2019-03-03T17:20:03.440Z,44.15
2019-03-03T17:30:03.503Z,44.34
2019-03-03T17:40:03.383Z,45.08
2019-03-03T17:50:02.499Z,45.30
2019-03-03T18:00:03.063Z,45.81
2019-03-03T18:10:03.102Z,46.35
2019-03-03T18:20:03.323Z,46.97
2019-03-03T18:30:03.194Z,46.72
2019-03-03T18:40:03.402Z,46.69
2019-03-03T18:50:03.534Z,47.52
2019-03-03T19:00:03.081Z,46.67
2019-03-03T19:10:02.574Z,46.38
2019-03-03T19:20:03.276Z,46.49
2019-03-03T19:30:03.430Z,47.32
2019-03-03T19:40:02.672Z,48.25
2019-03-03T19:50:03.237Z,49.05
2019-03-03T20:00:03.575Z,50.22
2019-03-03T20:10:02.636Z,51.42
2019-03-03T20:20:03.029Z,52.18
2019-03-03T20:30:03.913Z,53.18
2019-03-03T20:40:03.199Z,53.23
2019-03-03T20:50:03.254Z,53.62
2019-03-03T21:00:03.896Z,53.68
2019-03-03T21:10:02.802Z,54.13
2019-03-03T21:20:03.227Z,52.83
2019-03-03T21:30:03.251Z,51.99
2019-03-03T21:40:03.109Z,51.75
2019-03-03T21:50:03.352Z,53.56
2019-03-03T22:00:03.137Z,54.85
2019-03-03T22:10:03.385Z,55.25
2019-03-03T22:20:02.871Z,54.01
2019-03-03T22:30:04.002Z,53.84
2019-03-03T22:40:03.066Z,53.72
2019-03-03T22:50:02.538Z,53.98
2019-03-03T23:00:04.222Z,53.48
2019-03-03T23:10:03.250Z,53.05
2019-03-03T23:20:03.281Z,53.01
2019-03-03T23:30:03.192Z,52.50
2019-03-03T23:40:03.511Z,52.33
2019-03-03T23:50:03.357Z,53.01
